createdAt,value
2023-05-14T00:00:42.031Z,0.63
2023-05-14T00:03:08.761Z,0.60
2023-05-14T00:05:35.489Z,0.60
2023-05-14T00:08:02.439Z,0.70
2023-05-14T00:10:28.991Z,0.55
2023-05-14T00:12:55.756Z,0.60
2023-05-14T00:15:22.390Z,0.70
2023-05-14T00:17:49.005Z,0.70
2023-05-14T00:20:15.642Z,0.60
2023-05-14T00:22:42.240Z,0.40
2023-05-14T00:25:09.642Z,0.50
2023-05-14T00:27:37.873Z,0.60
2023-05-14T00:30:06.876Z,0.52
2023-05-14T00:32:33.694Z,0.60
2023-05-14T00:35:00.344Z,0.63
2023-05-14T00:37:26.910Z,0.90
2023-05-14T00:39:53.462Z,0.63
2023-05-14T00:42:20.035Z,0.70
2023-05-14T00:44:46.582Z,0.63
2023-05-14T00:47:13.310Z,0.60
2023-05-14T00:49:40.952Z,0.60
2023-05-14T00:52:08.937Z,0.60
2023-05-14T00:54:36.420Z,0.65
2023-05-14T00:57:03.988Z,0.60
2023-05-14T00:59:30.524Z,0.50
2023-05-14T01:01:57.149Z,0.60
2023-05-14T01:04:24.031Z,0.50
2023-05-14T01:07:18.709Z,0.80
2023-05-14T01:10:12.141Z,0.50
2023-05-14T01:12:53.413Z,0.43
2023-05-14T01:15:22.492Z,0.60
2023-05-14T01:17:54.071Z,0.68
2023-05-14T01:20:20.941Z,0.52
2023-05-14T01:22:47.597Z,0.50
2023-05-14T01:25:14.250Z,0.50
2023-05-14T01:27:58.430Z,0.50
2023-05-14T01:30:40.421Z,0.47
2023-05-14T01:35:33.993Z,0.52
2023-05-14T01:38:02.306Z,0.40
2023-05-14T01:40:29.389Z,0.60
2023-05-14T01:42:56.832Z,0.40
2023-05-14T01:45:26.597Z,0.52
2023-05-14T01:47:54.294Z,0.43
2023-05-14T01:50:21.234Z,0.65
2023-05-14T01:52:53.436Z,0.63
2023-05-14T01:55:20.162Z,0.50
2023-05-14T01:57:46.688Z,0.40
2023-05-14T02:00:13.722Z,0.70
2023-05-14T02:02:40.707Z,0.55
2023-05-14T02:05:07.911Z,0.68
2023-05-14T02:07:34.552Z,0.50
2023-05-14T02:10:01.188Z,0.60
2023-05-14T02:12:27.746Z,0.65
2023-05-14T02:14:54.376Z,0.60
2023-05-14T02:17:20.929Z,0.50
2023-05-14T02:19:47.574Z,0.50
2023-05-14T02:22:14.315Z,0.70
2023-05-14T02:24:41.162Z,0.60
2023-05-14T02:27:07.826Z,0.60
2023-05-14T02:29:34.626Z,0.75
2023-05-14T02:32:01.240Z,0.60
2023-05-14T02:34:27.748Z,0.60
2023-05-14T02:36:54.272Z,0.70
2023-05-14T02:39:20.811Z,0.60
2023-05-14T02:41:47.358Z,0.70
2023-05-14T02:44:13.947Z,0.75
2023-05-14T02:46:40.551Z,0.60
2023-05-14T02:49:07.086Z,0.60
2023-05-14T02:51:33.704Z,0.57
2023-05-14T02:54:00.463Z,0.60
2023-05-14T02:56:26.967Z,0.57
2023-05-14T02:58:53.512Z,0.60
2023-05-14T03:01:20.928Z,0.70
2023-05-14T03:03:48.034Z,0.60
2023-05-14T03:06:15.003Z,0.55
2023-05-14T03:08:41.703Z,0.50
2023-05-14T03:11:08.288Z,0.70
2023-05-14T03:13:34.785Z,0.63
2023-05-14T03:16:01.343Z,0.60
2023-05-14T03:18:30.683Z,0.60
2023-05-14T03:20:57.400Z,0.60
2023-05-14T03:23:23.946Z,0.70
2023-05-14T03:25:50.976Z,0.60
2023-05-14T03:28:17.531Z,0.57
2023-05-14T03:30:44.139Z,0.60
2023-05-14T03:33:12.409Z,0.60
2023-05-14T03:35:39.354Z,0.63
2023-05-14T03:38:06.045Z,0.70
2023-05-14T03:40:32.638Z,0.70
2023-05-14T03:42:59.300Z,0.70
2023-05-14T03:45:27.003Z,0.55
2023-05-14T03:47:53.650Z,0.50
2023-05-14T03:50:20.432Z,0.60
2023-05-14T03:52:46.949Z,0.60
2023-05-14T03:55:13.576Z,0.40
2023-05-14T03:57:40.692Z,0.50
2023-05-14T04:00:07.826Z,0.47
2023-05-14T04:02:34.448Z,0.47
2023-05-14T04:05:01.084Z,0.60
2023-05-14T04:07:27.668Z,0.55
2023-05-14T04:09:54.173Z,0.60
2023-05-14T04:12:20.752Z,0.50
2023-05-14T04:14:47.283Z,0.50
2023-05-14T04:17:13.914Z,0.52
2023-05-14T04:19:40.513Z,0.60
2023-05-14T04:22:07.075Z,0.60
2023-05-14T04:24:33.610Z,0.60
2023-05-14T04:27:00.163Z,0.60
2023-05-14T04:29:26.741Z,0.70
2023-05-14T04:31:53.650Z,0.65
2023-05-14T04:34:20.357Z,0.70
2023-05-14T04:36:46.954Z,0.68
2023-05-14T04:39:13.484Z,0.43
2023-05-14T04:41:40.104Z,0.50
2023-05-14T04:44:07.130Z,0.52
2023-05-14T04:46:33.846Z,0.50
2023-05-14T04:49:00.588Z,0.50
2023-05-14T04:51:27.688Z,0.43
2023-05-14T04:53:54.255Z,0.50
2023-05-14T04:56:21.562Z,0.55
2023-05-14T04:58:48.184Z,0.43
2023-05-14T05:01:15.251Z,0.50
2023-05-14T05:03:43.277Z,0.60
2023-05-14T05:06:09.905Z,0.40
2023-05-14T05:08:36.599Z,0.43
2023-05-14T05:11:03.128Z,0.50
2023-05-14T05:13:30.782Z,0.60
2023-05-14T05:15:57.353Z,0.50
2023-05-14T05:18:23.987Z,0.40
2023-05-14T05:20:50.501Z,0.43
2023-05-14T05:23:17.090Z,0.43
2023-05-14T05:25:43.632Z,0.57
2023-05-14T05:28:10.369Z,0.45
2023-05-14T05:30:36.955Z,0.50
2023-05-14T05:33:03.694Z,0.50
2023-05-14T05:35:30.344Z,0.40
2023-05-14T05:38:00.493Z,0.43
2023-05-14T05:40:27.965Z,0.50
2023-05-14T05:42:54.596Z,0.60
2023-05-14T05:45:21.230Z,0.40
2023-05-14T05:47:47.803Z,0.60
2023-05-14T05:52:41.581Z,0.50
2023-05-14T05:55:08.582Z,0.40
2023-05-14T05:57:35.110Z,0.57
2023-05-14T06:00:07.948Z,0.57
2023-05-14T06:02:34.614Z,0.52
2023-05-14T06:05:01.318Z,0.50
2023-05-14T06:07:27.928Z,0.60
2023-05-14T06:09:54.465Z,0.63
2023-05-14T06:12:21.761Z,0.40
2023-05-14T06:14:48.269Z,0.50
2023-05-14T06:17:14.845Z,0.40
2023-05-14T06:19:41.377Z,0.50
2023-05-14T06:22:07.923Z,0.43
2023-05-14T06:24:34.483Z,0.35
2023-05-14T06:27:01.139Z,0.32
2023-05-14T06:29:27.747Z,0.30
2023-05-14T06:31:54.399Z,0.43
2023-05-14T06:34:21.075Z,0.40
2023-05-14T06:36:47.687Z,0.40
2023-05-14T06:39:14.256Z,0.32
2023-05-14T06:41:40.782Z,0.30
2023-05-14T06:44:07.296Z,0.40
2023-05-14T06:46:33.841Z,0.30
2023-05-14T06:49:00.527Z,0.28
2023-05-14T06:51:27.297Z,0.30
2023-05-14T06:54:14.996Z,0.45
2023-05-14T06:56:41.503Z,0.30
2023-05-14T06:59:08.019Z,0.30
2023-05-14T07:01:34.606Z,0.60
2023-05-14T07:04:01.237Z,1.00
2023-05-14T07:06:27.943Z,1.25
2023-05-14T07:08:54.605Z,1.00
2023-05-14T07:11:22.275Z,1.20
2023-05-14T07:13:48.999Z,1.75
2023-05-14T07:16:15.568Z,1.10
2023-05-14T07:18:42.213Z,1.05
2023-05-14T07:21:09.123Z,0.88
2023-05-14T07:23:38.554Z,1.08
2023-05-14T07:26:06.198Z,0.80
2023-05-14T07:28:32.927Z,0.90
2023-05-14T07:30:59.825Z,0.70
2023-05-14T07:33:26.530Z,0.70
2023-05-14T07:35:54.159Z,1.20
2023-05-14T07:38:21.029Z,1.17
2023-05-14T07:40:47.588Z,1.00
2023-05-14T07:43:14.201Z,0.95
2023-05-14T07:45:40.915Z,0.90
2023-05-14T07:48:07.656Z,0.80
2023-05-14T07:50:34.409Z,0.80
2023-05-14T07:53:00.945Z,0.70
2023-05-14T07:55:27.438Z,0.50
2023-05-14T07:57:53.984Z,0.52
2023-05-14T08:00:20.709Z,0.50
2023-05-14T08:02:49.245Z,0.43
2023-05-14T08:05:16.695Z,0.50
2023-05-14T08:07:43.476Z,0.40
2023-05-14T08:10:10.352Z,0.40
2023-05-14T08:12:36.944Z,0.40
2023-05-14T08:15:03.911Z,0.30
2023-05-14T08:17:30.596Z,0.30
2023-05-14T08:19:57.219Z,0.40
2023-05-14T08:22:23.738Z,0.50
2023-05-14T08:24:50.310Z,0.50
2023-05-14T08:27:17.235Z,0.30
2023-05-14T08:29:43.783Z,0.30
2023-05-14T08:32:22.226Z,0.50
2023-05-14T08:34:51.899Z,0.40
2023-05-14T08:37:18.653Z,0.40
2023-05-14T08:39:45.251Z,0.50
2023-05-14T08:42:13.335Z,0.50
2023-05-14T08:44:50.201Z,0.50
2023-05-14T08:47:20.216Z,0.40
2023-05-14T08:49:48.045Z,0.50
2023-05-14T08:52:16.410Z,0.40
2023-05-14T08:54:42.999Z,0.30
2023-05-14T08:57:10.666Z,0.40
2023-05-14T08:59:37.666Z,0.40
2023-05-14T09:02:06.389Z,0.47
2023-05-14T09:04:33.935Z,0.40
2023-05-14T09:07:02.180Z,1.00
2023-05-14T09:09:28.941Z,0.82
2023-05-14T09:11:55.629Z,0.80
2023-05-14T09:14:23.374Z,0.80
2023-05-14T09:16:50.996Z,0.70
2023-05-14T09:19:19.397Z,0.80
2023-05-14T09:21:47.518Z,0.70
2023-05-14T09:24:21.619Z,0.70
2023-05-14T09:26:53.297Z,0.70
2023-05-14T09:31:46.688Z,0.50
2023-05-14T09:34:27.579Z,0.40
2023-05-14T09:36:58.467Z,0.67
2023-05-14T09:39:26.443Z,0.53
2023-05-14T09:41:53.349Z,0.60
2023-05-14T09:44:20.352Z,0.35
2023-05-14T09:46:47.398Z,0.28
2023-05-14T09:49:14.418Z,0.50
2023-05-14T09:51:41.235Z,0.50
2023-05-14T09:54:08.315Z,0.40
2023-05-14T09:56:36.422Z,0.30
2023-05-14T09:59:04.055Z,0.40
2023-05-14T10:01:31.097Z,0.30
2023-05-14T10:03:57.772Z,0.30
2023-05-14T10:06:28.144Z,0.40
2023-05-14T10:09:01.536Z,0.40
2023-05-14T10:11:31.329Z,0.35
2023-05-14T10:13:57.840Z,0.40
2023-05-14T10:16:56.687Z,0.40
2023-05-14T10:19:24.833Z,0.47
2023-05-14T10:22:04.721Z,0.57
2023-05-14T10:24:31.755Z,0.50
2023-05-14T10:26:58.872Z,0.55
2023-05-14T10:29:35.327Z,0.40
2023-05-14T10:32:07.000Z,0.50
2023-05-14T10:34:40.964Z,0.40
2023-05-14T10:37:12.547Z,0.50
2023-05-14T10:39:59.380Z,0.30
2023-05-14T10:42:35.444Z,0.30
2023-05-14T10:45:07.401Z,0.40
2023-05-14T10:47:40.011Z,0.50
2023-05-14T10:50:08.680Z,0.25
2023-05-14T10:52:35.491Z,0.40
2023-05-14T10:55:04.371Z,0.40
2023-05-14T10:57:32.026Z,0.60
2023-05-14T11:00:00.497Z,0.40
2023-05-14T11:02:38.157Z,0.40
2023-05-14T11:05:17.312Z,0.47
2023-05-14T11:07:46.273Z,0.38
2023-05-14T11:10:14.051Z,0.30
2023-05-14T11:12:42.482Z,0.40
2023-05-14T11:15:11.163Z,0.50
2023-05-14T11:17:38.970Z,0.40
2023-05-14T11:20:06.662Z,0.40
2023-05-14T11:22:34.173Z,0.52
2023-05-14T11:25:00.837Z,0.50
2023-05-14T11:27:27.524Z,0.40
2023-05-14T11:29:55.954Z,0.40
2023-05-14T11:32:22.810Z,0.40
2023-05-14T11:34:49.641Z,0.30
2023-05-14T11:37:17.185Z,0.30
2023-05-14T11:39:52.220Z,0.40
2023-05-14T11:42:19.721Z,0.20
2023-05-14T11:44:51.940Z,0.32
2023-05-14T11:47:19.827Z,0.20
2023-05-14T11:49:46.661Z,0.30
2023-05-14T11:52:14.832Z,0.50
2023-05-14T11:54:44.958Z,0.40
2023-05-14T11:57:22.017Z,0.30
2023-05-14T11:59:49.734Z,0.40
2023-05-14T12:02:18.035Z,0.30
2023-05-14T12:04:45.216Z,0.55
2023-05-14T12:07:13.612Z,0.30
2023-05-14T12:09:45.081Z,0.20
2023-05-14T12:12:12.955Z,0.25
2023-05-14T12:14:42.525Z,0.20
2023-05-14T12:17:17.482Z,0.20
2023-05-14T12:19:45.642Z,0.20
2023-05-14T12:22:15.213Z,0.20
2023-05-14T12:24:43.376Z,0.10
2023-05-14T12:27:10.630Z,0.10
2023-05-14T12:29:41.180Z,0.30
2023-05-14T12:32:09.416Z,0.20
2023-05-14T12:34:37.701Z,0.30
2023-05-14T12:37:07.297Z,0.30
2023-05-14T12:39:34.895Z,0.32
2023-05-14T12:42:01.924Z,0.30
2023-05-14T12:44:29.073Z,0.30
2023-05-14T12:46:56.775Z,0.13
2023-05-14T12:49:23.482Z,0.30
2023-05-14T12:51:52.688Z,0.20
2023-05-14T12:54:23.483Z,0.13
2023-05-14T12:56:50.078Z,0.30
2023-05-14T12:59:16.751Z,0.10
2023-05-14T13:01:43.526Z,0.20
2023-05-14T13:04:12.538Z,0.20
2023-05-14T13:06:39.804Z,0.30
2023-05-14T13:09:07.219Z,0.25
2023-05-14T13:11:33.924Z,0.30
2023-05-14T13:14:02.174Z,0.30
2023-05-14T13:16:29.429Z,0.20
2023-05-14T13:18:56.163Z,0.20
2023-05-14T13:21:22.812Z,0.22
2023-05-14T13:23:49.413Z,0.20
2023-05-14T13:26:16.208Z,0.40
2023-05-14T13:28:43.752Z,0.20
2023-05-14T13:31:12.251Z,0.25
2023-05-14T13:33:42.017Z,0.20
2023-05-14T13:36:09.624Z,0.30
2023-05-14T13:38:36.381Z,0.30
2023-05-14T13:41:03.092Z,0.20
2023-05-14T13:43:34.153Z,0.38
2023-05-14T13:46:01.577Z,0.28
2023-05-14T13:48:28.517Z,0.20
2023-05-14T13:50:55.233Z,0.32
2023-05-14T13:53:23.039Z,0.47
2023-05-14T13:55:50.491Z,0.25
2023-05-14T13:58:17.287Z,0.43
2023-05-14T14:00:43.871Z,0.40
2023-05-14T14:03:10.698Z,0.40
2023-05-14T14:05:37.751Z,0.40
2023-05-14T14:08:21.851Z,0.40
2023-05-14T14:10:49.417Z,0.40
2023-05-14T14:13:16.168Z,0.30
2023-05-14T14:15:43.816Z,0.40
2023-05-14T14:18:10.687Z,0.40
2023-05-14T14:20:37.214Z,0.40
2023-05-14T14:23:03.774Z,0.40
2023-05-14T14:25:30.355Z,0.35
2023-05-14T14:27:56.966Z,0.50
2023-05-14T14:30:23.515Z,0.40
2023-05-14T14:32:50.659Z,0.40
2023-05-14T14:35:18.911Z,0.50
2023-05-14T14:37:49.398Z,0.40
2023-05-14T14:40:16.871Z,0.45
2023-05-14T14:42:43.711Z,0.45
2023-05-14T14:45:10.761Z,0.50
2023-05-14T14:47:37.508Z,0.30
2023-05-14T14:50:04.515Z,0.40
2023-05-14T14:52:31.271Z,0.57
2023-05-14T14:54:57.882Z,0.40
2023-05-14T14:57:24.439Z,0.50
2023-05-14T14:59:51.056Z,0.45
2023-05-14T15:02:17.768Z,0.60
2023-05-14T15:04:44.353Z,0.40
2023-05-14T15:07:11.262Z,0.60
2023-05-14T15:09:37.868Z,0.57
2023-05-14T15:12:05.131Z,0.50
2023-05-14T15:14:31.702Z,0.55
2023-05-14T15:16:58.380Z,0.50
2023-05-14T15:19:24.983Z,0.60
2023-05-14T15:21:53.182Z,0.60
2023-05-14T15:24:19.783Z,0.57
2023-05-14T15:26:46.818Z,0.60
2023-05-14T15:29:13.471Z,0.60
2023-05-14T15:31:41.495Z,0.50
2023-05-14T15:34:08.237Z,0.60
2023-05-14T15:36:34.826Z,0.70
2023-05-14T15:39:01.468Z,0.50
2023-05-14T15:41:28.814Z,0.60
2023-05-14T15:43:56.176Z,0.70
2023-05-14T15:46:28.384Z,0.65
2023-05-14T15:48:55.961Z,0.47
2023-05-14T15:51:22.575Z,0.50
2023-05-14T15:53:49.167Z,0.40
2023-05-14T15:56:16.096Z,0.60
2023-05-14T15:58:42.705Z,0.63
2023-05-14T16:01:09.376Z,0.65
2023-05-14T16:03:36.103Z,0.60
2023-05-14T16:06:02.724Z,0.60
2023-05-14T16:08:29.591Z,0.65
2023-05-14T16:10:56.193Z,0.60
2023-05-14T16:13:23.345Z,0.55
2023-05-14T16:15:50.063Z,0.63
2023-05-14T16:18:16.604Z,0.60
2023-05-14T16:20:43.172Z,0.50
2023-05-14T16:23:09.706Z,0.60
2023-05-14T16:25:36.422Z,0.50
2023-05-14T16:28:03.073Z,0.47
2023-05-14T16:30:29.745Z,0.60
2023-05-14T16:32:56.334Z,0.70
2023-05-14T16:35:22.904Z,0.60
2023-05-14T16:37:49.462Z,0.70
2023-05-14T16:40:16.242Z,0.63
2023-05-14T16:42:42.942Z,0.80
2023-05-14T16:45:09.970Z,0.73
2023-05-14T16:47:36.565Z,0.70
2023-05-14T16:50:03.343Z,0.60
2023-05-14T16:52:29.975Z,0.50
2023-05-14T16:54:56.665Z,0.68
2023-05-14T16:57:23.205Z,0.50
2023-05-14T16:59:49.885Z,0.60
2023-05-14T17:02:16.534Z,0.55
2023-05-14T17:04:43.367Z,0.57
2023-05-14T17:07:10.383Z,0.70
2023-05-14T17:09:37.102Z,0.70
2023-05-14T17:12:05.031Z,0.60
2023-05-14T17:14:31.977Z,0.77
2023-05-14T17:16:58.616Z,0.73
2023-05-14T17:19:25.262Z,0.60
2023-05-14T17:21:51.844Z,0.55
2023-05-14T17:24:18.392Z,0.70
2023-05-14T17:26:44.978Z,0.80
2023-05-14T17:29:11.680Z,0.73
2023-05-14T17:31:38.480Z,0.70
2023-05-14T17:34:05.079Z,0.82
2023-05-14T17:36:32.388Z,0.70
2023-05-14T17:38:58.899Z,0.70
2023-05-14T17:41:25.427Z,0.77
2023-05-14T17:43:54.803Z,0.88
2023-05-14T17:46:21.523Z,0.60
2023-05-14T17:48:48.110Z,0.80
2023-05-14T17:51:14.702Z,0.68
2023-05-14T17:53:41.318Z,0.63
2023-05-14T17:56:07.948Z,0.73
2023-05-14T17:58:35.363Z,0.60
2023-05-14T18:01:02.100Z,0.60
2023-05-14T18:03:28.880Z,1.02
2023-05-14T18:05:55.582Z,0.60
2023-05-14T18:08:22.208Z,0.80
2023-05-14T18:10:48.796Z,0.88
2023-05-14T18:13:15.438Z,0.65
2023-05-14T18:15:42.314Z,0.60
2023-05-14T18:18:09.056Z,0.80
2023-05-14T18:20:36.289Z,1.05
2023-05-14T18:23:03.071Z,0.73
2023-05-14T18:25:29.670Z,0.63
2023-05-14T18:27:56.235Z,0.80
2023-05-14T18:30:22.752Z,0.77
2023-05-14T18:32:49.520Z,0.80
2023-05-14T18:35:16.100Z,0.60
2023-05-14T18:37:44.037Z,0.80
2023-05-14T18:40:11.365Z,0.63
2023-05-14T18:42:37.920Z,0.70
2023-05-14T18:45:04.731Z,0.70
2023-05-14T18:47:32.430Z,0.70
2023-05-14T18:50:01.813Z,0.70
2023-05-14T18:52:29.176Z,0.65
2023-05-14T18:54:55.748Z,0.80
2023-05-14T18:57:22.571Z,0.70
2023-05-14T18:59:49.181Z,0.57
2023-05-14T19:02:16.255Z,0.60
2023-05-14T19:04:51.743Z,0.80
2023-05-14T19:07:22.743Z,0.60
2023-05-14T19:09:49.452Z,0.70
2023-05-14T19:12:16.316Z,0.50
2023-05-14T19:14:42.921Z,0.60
2023-05-14T19:17:09.513Z,0.50
2023-05-14T19:19:36.517Z,0.60
2023-05-14T19:22:03.237Z,0.70
2023-05-14T19:24:30.297Z,0.55
2023-05-14T19:26:56.923Z,0.60
2023-05-14T19:29:23.471Z,0.60
2023-05-14T19:31:50.237Z,0.75
2023-05-14T19:34:16.798Z,1.02
2023-05-14T19:36:43.439Z,0.70
2023-05-14T19:39:10.873Z,0.60
2023-05-14T19:41:37.529Z,0.60
2023-05-14T19:44:04.076Z,0.60
2023-05-14T19:46:30.686Z,0.57
2023-05-14T19:48:57.333Z,0.60
2023-05-14T19:51:23.913Z,0.93
2023-05-14T19:53:50.570Z,0.80
2023-05-14T19:56:17.313Z,0.60
2023-05-14T19:58:44.414Z,0.60
2023-05-14T20:01:12.013Z,0.60
2023-05-14T20:03:38.852Z,0.60
2023-05-14T20:06:06.758Z,0.70
2023-05-14T20:08:33.481Z,0.70
2023-05-14T20:11:00.141Z,0.80
2023-05-14T20:13:26.724Z,0.70
2023-05-14T20:15:55.088Z,0.70
2023-05-14T20:18:21.908Z,0.65
2023-05-14T20:20:49.089Z,1.00
2023-05-14T20:23:15.958Z,1.00
2023-05-14T20:25:43.153Z,0.80
2023-05-14T20:28:10.193Z,0.93
2023-05-14T20:30:36.963Z,1.10
2023-05-14T20:33:04.099Z,0.90
2023-05-14T20:35:31.252Z,1.00
2023-05-14T20:37:57.868Z,1.00
2023-05-14T20:40:24.883Z,0.93
2023-05-14T20:42:52.258Z,0.90
2023-05-14T20:45:19.066Z,0.90
2023-05-14T20:47:45.837Z,0.80
2023-05-14T20:50:13.754Z,1.00
2023-05-14T20:52:40.720Z,1.38
2023-05-14T20:55:07.784Z,0.90
2023-05-14T20:57:34.392Z,1.00
2023-05-14T21:00:02.281Z,1.10
2023-05-14T21:02:28.921Z,1.10
2023-05-14T21:04:55.593Z,1.02
2023-05-14T21:07:22.287Z,0.90
2023-05-14T21:09:52.427Z,1.08
2023-05-14T21:12:19.428Z,1.05
2023-05-14T21:14:45.940Z,1.00
2023-05-14T21:17:12.692Z,1.00
2023-05-14T21:19:39.695Z,1.10
2023-05-14T21:22:06.812Z,0.93
2023-05-14T21:24:33.333Z,1.05
2023-05-14T21:26:59.893Z,0.80
2023-05-14T21:29:26.404Z,0.90
2023-05-14T21:31:52.951Z,0.82
2023-05-14T21:34:19.524Z,0.70
2023-05-14T21:36:46.103Z,0.85
2023-05-14T21:39:12.670Z,1.08
2023-05-14T21:41:39.394Z,1.00
2023-05-14T21:44:05.972Z,0.80
2023-05-14T21:46:32.702Z,0.80
2023-05-14T21:48:59.333Z,0.88
2023-05-14T21:51:25.926Z,0.98
2023-05-14T21:53:52.876Z,1.00
2023-05-14T21:56:19.445Z,0.90
2023-05-14T21:58:46.101Z,1.02
2023-05-14T22:01:12.843Z,1.10
2023-05-14T22:03:39.496Z,1.10
2023-05-14T22:06:06.082Z,1.00
2023-05-14T22:08:32.660Z,0.80
2023-05-14T22:10:59.282Z,0.90
2023-05-14T22:13:25.899Z,0.82
2023-05-14T22:16:01.560Z,0.90
2023-05-14T22:18:36.632Z,1.40
2023-05-14T22:21:03.490Z,1.00
2023-05-14T22:23:30.090Z,0.93
2023-05-14T22:25:57.127Z,1.00
2023-05-14T22:28:23.754Z,0.90
2023-05-14T22:30:50.310Z,0.73
2023-05-14T22:33:16.821Z,0.77
2023-05-14T22:35:43.326Z,0.80
2023-05-14T22:38:09.862Z,0.90
2023-05-14T22:40:36.483Z,0.90
2023-05-14T22:43:03.060Z,0.70
2023-05-14T22:45:30.216Z,0.90
2023-05-14T22:47:56.817Z,0.85
2023-05-14T22:50:23.412Z,0.90
2023-05-14T22:52:49.961Z,0.80
2023-05-14T22:55:16.621Z,0.93
2023-05-14T22:57:43.419Z,0.90
2023-05-14T23:00:11.211Z,0.80
2023-05-14T23:02:37.789Z,0.70
2023-05-14T23:05:04.737Z,0.90
2023-05-14T23:07:31.443Z,0.80
2023-05-14T23:09:57.989Z,0.90
2023-05-14T23:12:24.538Z,0.90
2023-05-14T23:14:51.207Z,0.95
2023-05-14T23:17:17.844Z,0.68
2023-05-14T23:19:44.452Z,1.00
2023-05-14T23:22:11.029Z,0.90
2023-05-14T23:24:37.540Z,0.73
2023-05-14T23:27:04.095Z,1.00
2023-05-14T23:29:30.745Z,0.70
2023-05-14T23:31:57.353Z,0.85
2023-05-14T23:34:24.001Z,0.88
2023-05-14T23:36:50.790Z,0.70
2023-05-14T23:39:17.431Z,0.70
2023-05-14T23:41:43.941Z,0.90
2023-05-14T23:44:10.435Z,0.88
2023-05-14T23:46:37.104Z,0.75
2023-05-14T23:49:03.766Z,0.80
2023-05-14T23:51:30.486Z,0.90
2023-05-14T23:53:58.739Z,0.90
2023-05-14T23:56:26.265Z,0.80
2023-05-14T23:58:53.104Z,0.70
